Αρχική σελίδα
METAR-TAF:

METAR-TAF

Αεροδρόμια :

Cascavel, Παρανά, Βραζιλία

γεωγραφικό πλάτος: 25-00-08S, γεωγραφικό μήκος: 53-30-07W, υψόμετρο: 754 μ

Παρών καιρός

Η αναφορά έγινε 54 λεπτά πριν, στις 18:00 UTC
Άνεμος 7 kt από Α/NA
Θερμοκρασία 19°C
Υγρασία 88%
Πίεση 1014 hPa
Ορατότητα 10 χλμ και άνω
Λίγα νέφη σε ύψος 3000 πόδια
Λίγα νέφη σε ύψος 4000 πόδια, Σωρείτες καθέτου αναπτύξεως.
Νεφοσκεπής σε ύψος 8000 πόδια

METAR: SBCA 171800Z 12007KT 9999 FEW030 FEW040TCU OVC080 19/17 Q1014

Χρόνος: 15:54 (18:54 UTC)


TAF: λείπει

Μετεωρολογικές αναφορές και προγνώσεις για περισσότερα από 4000 αεροδρόμια (δελτία METAR και TAF).

Οι διαθέσιμοι σταθμοί απεικονίζονται στο χάρτη με κίτρινες και κόκκινες κουκκίδες.

Μετακινήστε το ποντίκι πάνω από τις κουκκίδες για να δείτε το όνομα του σταθμού.

Στη συνέχεια, κάντε κλικ για να δείτε τις μετεωρολογικές αναφορές και τις προγνώσεις καιρού.

Για να αλλάξετε το χάρτη: κάντε κλικ στα πράσινα κουμπιά με τον μαύρο σταυρό για να ζουμάρετε, στο πράσινο κουμπί με την παύλα για να αφαιρέσετε το ζουμ ή στα πράσινα βέλη για να αντιπαραβάλλετε χάρτες.


METAR-TAF: